createdAt,value
2022-10-18T00:00:45.971Z,15.94
2022-10-18T00:03:17.406Z,16.03
2022-10-18T00:05:46.883Z,16.11
2022-10-18T00:08:35.933Z,16.02
2022-10-18T00:11:12.730Z,15.90
2022-10-18T00:13:47.923Z,15.85
2022-10-18T00:16:29.479Z,15.89
2022-10-18T00:19:03.510Z,15.70
2022-10-18T00:21:36.533Z,15.52
2022-10-18T00:24:23.423Z,15.60
2022-10-18T00:27:16.662Z,15.84
2022-10-18T00:29:47.717Z,16.02
2022-10-18T00:32:42.234Z,16.17
2022-10-18T00:35:17.334Z,15.95
2022-10-18T00:37:48.236Z,15.80
2022-10-18T00:40:18.445Z,15.65
2022-10-18T00:42:47.267Z,15.48
2022-10-18T00:45:24.466Z,15.73
2022-10-18T00:48:01.335Z,15.55
2022-10-18T00:50:37.043Z,15.59
2022-10-18T00:53:09.973Z,15.63
2022-10-18T00:55:41.233Z,15.47
2022-10-18T00:58:10.705Z,15.53
2022-10-18T01:00:41.378Z,15.58
2022-10-18T01:03:13.479Z,15.54
2022-10-18T01:05:47.989Z,15.48
2022-10-18T01:11:49.028Z,15.59
2022-10-18T01:14:53.388Z,15.48
2022-10-18T01:17:46.233Z,15.72
2022-10-18T01:21:03.857Z,15.76
2022-10-18T01:24:12.957Z,15.68
2022-10-18T01:27:11.025Z,15.75
2022-10-18T01:30:19.302Z,16.00
2022-10-18T01:33:00.629Z,16.08
2022-10-18T01:35:41.676Z,16.13
2022-10-18T01:38:18.374Z,16.18
2022-10-18T01:40:52.640Z,16.18
2022-10-18T01:43:30.904Z,16.23
2022-10-18T01:46:22.951Z,15.83
2022-10-18T01:49:04.387Z,16.00
2022-10-18T01:51:36.543Z,15.38
2022-10-18T01:54:30.935Z,15.97
2022-10-18T01:57:32.809Z,16.03
2022-10-18T02:00:19.753Z,15.80
2022-10-18T02:03:23.396Z,15.80
2022-10-18T02:06:39.912Z,15.69
2022-10-18T02:09:24.435Z,15.76
2022-10-18T02:11:56.324Z,15.64
2022-10-18T02:14:28.156Z,15.62
2022-10-18T02:17:04.432Z,15.53
2022-10-18T02:19:37.497Z,15.29
2022-10-18T02:22:35.146Z,15.47
2022-10-18T02:25:14.319Z,15.49
2022-10-18T02:28:01.025Z,15.35
2022-10-18T02:30:56.545Z,15.45
2022-10-18T02:33:49.698Z,15.53
2022-10-18T02:36:42.817Z,15.49
2022-10-18T02:39:19.107Z,15.32
2022-10-18T02:42:16.825Z,15.46
2022-10-18T02:44:55.502Z,15.50
2022-10-18T02:47:44.466Z,15.51
2022-10-18T02:50:15.331Z,15.57
2022-10-18T02:52:54.754Z,15.73
2022-10-18T02:57:57.210Z,15.65
2022-10-18T03:00:28.438Z,15.67
2022-10-18T03:02:55.480Z,15.61
2022-10-18T03:05:27.917Z,15.64
2022-10-18T03:08:01.563Z,15.67
2022-10-18T03:10:46.952Z,15.73
2022-10-18T03:13:18.595Z,15.58
2022-10-18T03:16:06.300Z,15.57
2022-10-18T03:18:46.548Z,15.37
2022-10-18T03:21:32.717Z,15.47
2022-10-18T03:24:10.987Z,15.51
2022-10-18T03:26:55.308Z,15.22
2022-10-18T03:29:28.763Z,15.25
2022-10-18T03:32:00.007Z,15.32
2022-10-18T03:34:34.958Z,15.39
2022-10-18T03:37:18.700Z,15.42
2022-10-18T03:39:46.588Z,15.36
2022-10-18T03:42:32.492Z,15.40
2022-10-18T03:45:20.788Z,15.41
2022-10-18T03:47:53.974Z,15.37
2022-10-18T03:50:42.328Z,15.47
2022-10-18T03:53:16.358Z,15.32
2022-10-18T03:55:52.753Z,15.30
2022-10-18T03:58:22.090Z,15.28
2022-10-18T04:00:54.558Z,15.16
2022-10-18T04:03:28.887Z,15.15
2022-10-18T04:06:04.807Z,15.22
2022-10-18T04:08:33.612Z,15.19
2022-10-18T04:11:33.680Z,15.29
2022-10-18T04:14:27.355Z,15.14
2022-10-18T04:16:54.509Z,15.23
2022-10-18T04:19:43.071Z,15.01
2022-10-18T04:22:13.593Z,15.17
2022-10-18T04:25:11.066Z,15.27
2022-10-18T04:27:47.543Z,15.41
2022-10-18T04:30:40.447Z,15.35
2022-10-18T04:33:11.232Z,15.19
2022-10-18T04:35:48.773Z,15.11
2022-10-18T04:38:21.261Z,15.07
2022-10-18T04:40:50.637Z,14.89
2022-10-18T04:43:20.686Z,15.05
2022-10-18T04:46:07.935Z,15.11
2022-10-18T04:48:40.780Z,15.08
2022-10-18T04:51:10.488Z,15.16
2022-10-18T04:53:41.525Z,15.10
2022-10-18T04:56:11.427Z,15.14
2022-10-18T04:59:00.867Z,15.29
2022-10-18T05:01:42.748Z,15.07
2022-10-18T05:04:43.015Z,15.33
2022-10-18T05:07:15.360Z,15.26
2022-10-18T05:10:28.958Z,15.06
2022-10-18T05:13:34.444Z,15.22
2022-10-18T05:16:18.952Z,15.36
2022-10-18T05:19:10.244Z,15.29
2022-10-18T05:21:42.955Z,15.43
2022-10-18T05:24:42.180Z,15.45
2022-10-18T05:27:50.748Z,14.87
2022-10-18T05:33:40.515Z,15.55
2022-10-18T05:36:21.647Z,15.34
2022-10-18T05:39:13.289Z,15.46
2022-10-18T05:41:47.511Z,15.53
2022-10-18T05:44:30.250Z,15.34
2022-10-18T05:47:19.013Z,15.39
2022-10-18T05:49:46.701Z,15.17
2022-10-18T05:52:26.261Z,15.19
2022-10-18T06:02:45.897Z,15.43
2022-10-18T06:05:18.687Z,15.45
2022-10-18T06:08:18.258Z,15.55
2022-10-18T06:11:16.758Z,15.60
2022-10-18T06:14:05.474Z,15.45
2022-10-18T06:16:48.181Z,15.21
2022-10-18T06:19:28.937Z,15.37
2022-10-18T06:22:06.053Z,15.17
2022-10-18T06:24:57.271Z,15.14
2022-10-18T06:27:48.256Z,15.32
2022-10-18T06:30:19.412Z,15.27
2022-10-18T06:32:50.059Z,15.49
2022-10-18T06:35:45.446Z,15.51
2022-10-18T06:38:21.219Z,15.74
2022-10-18T06:41:10.358Z,15.46
2022-10-18T06:43:49.701Z,15.48
2022-10-18T06:46:29.464Z,15.71
2022-10-18T06:48:58.033Z,15.55
2022-10-18T06:51:32.225Z,15.76
2022-10-18T06:54:18.964Z,15.52
2022-10-18T06:56:55.877Z,15.53
2022-10-18T06:59:32.603Z,15.67
2022-10-18T07:02:16.320Z,15.39
2022-10-18T07:04:47.644Z,15.77
2022-10-18T07:07:15.279Z,15.84
2022-10-18T07:10:01.869Z,15.86
2022-10-18T07:12:44.779Z,15.69
2022-10-18T07:15:26.303Z,15.66
2022-10-18T07:17:57.972Z,16.00
2022-10-18T07:20:25.453Z,15.73
2022-10-18T07:23:25.713Z,15.76
2022-10-18T07:25:57.487Z,15.67
2022-10-18T07:29:05.173Z,15.55
2022-10-18T07:31:55.178Z,15.72
2022-10-18T07:34:22.648Z,15.73
2022-10-18T07:37:10.243Z,15.90
2022-10-18T07:39:55.550Z,16.14
2022-10-18T07:42:37.687Z,16.03
2022-10-18T07:45:22.047Z,15.98
2022-10-18T07:47:56.303Z,16.25
2022-10-18T07:50:33.842Z,16.33
2022-10-18T07:53:21.115Z,16.37
2022-10-18T07:56:16.744Z,15.72
2022-10-18T07:59:13.221Z,16.04
2022-10-18T08:01:45.503Z,15.77
2022-10-18T08:04:44.450Z,15.95
2022-10-18T08:07:34.002Z,16.07
2022-10-18T08:10:25.227Z,16.08
2022-10-18T08:13:31.397Z,16.30
2022-10-18T08:19:16.004Z,16.41
2022-10-18T08:21:48.228Z,16.41
2022-10-18T08:24:32.808Z,16.69
2022-10-18T08:27:40.352Z,16.58
2022-10-18T08:30:17.219Z,16.55
2022-10-18T08:32:52.939Z,16.66
2022-10-18T08:35:27.983Z,16.57
2022-10-18T08:38:06.402Z,16.42
2022-10-18T08:41:05.901Z,16.63
2022-10-18T08:43:56.397Z,16.81
2022-10-18T08:46:29.946Z,16.94
2022-10-18T08:49:36.223Z,17.07
2022-10-18T08:55:29.220Z,17.54
2022-10-18T08:58:24.718Z,17.24
2022-10-18T09:01:20.308Z,17.24
2022-10-18T09:04:37.409Z,17.83
2022-10-18T09:07:52.136Z,18.34
2022-10-18T09:11:41.634Z,18.87
2022-10-18T09:14:52.542Z,19.28
2022-10-18T09:17:59.026Z,20.15
2022-10-18T09:20:26.198Z,19.88
2022-10-18T09:23:22.509Z,19.97
2022-10-18T09:26:12.804Z,20.44
2022-10-18T09:29:10.389Z,20.74
2022-10-18T09:32:05.333Z,21.00
2022-10-18T09:35:18.563Z,21.47
2022-10-18T09:38:18.558Z,21.57
2022-10-18T09:48:22.656Z,22.23
2022-10-18T09:51:11.457Z,22.59
2022-10-18T09:54:21.144Z,21.26
2022-10-18T10:00:17.735Z,22.22
2022-10-18T10:02:52.515Z,22.13
2022-10-18T10:05:42.199Z,21.92
2022-10-18T10:08:20.274Z,21.84
